Flight Track Log - Related Links

Times and Time Zones

All times are in EDT time to prevent confusion due to time zone crossing. See the AWI4029 flight status page for this flight to view local times or setup timezone preferences in your user account.

Time Position Orientation Groundspeed Altitude Reporting Facility
EDT Latitude Longitude Course Direction KTS MPH feet Rate Location/Type
Tue 05:35:52 AM 42.7714 -73.8061 223° Southwest 163 188 1,200  Level Boston Center
Tue 05:37:05 AM 42.8339 -73.8103 357° North 204 235 3,300 1,586 Climbing Boston Center
Tue 05:38:00 AM 42.7334 -74.1884 270° West  Level FlightAware Approximate
Tue 05:38:12 AM 42.8792 -73.8708 316° Northwest 250 288 4,900  Level Boston Center
Tue 05:39:00 AM 42.7259 -74.3148 236° Southwest  Level FlightAware Approximate
Tue 05:39:12 AM 42.8775 -73.9842 269° West 266 306 7,400  Level Boston Center
Tue 05:40:00 AM 42.6561 -74.4016 220° Southwest  Level FlightAware Approximate
Tue 05:40:13 AM 42.8761 -74.0892 269° West 271 312 9,400  Level Boston Center
Tue 05:41:00 AM 42.5829 -74.4839 223° Southwest  Level FlightAware Approximate
Tue 05:41:13 AM 42.8558 -74.1875 254° West 271 312 10,800  Level Boston Center
Tue 05:42:13 AM 42.8042 -74.2881 235° Southwest 312 359 12,200 1,300 Climbing Boston Center
Tue 05:43:13 AM 42.7278 -74.3706 218° Southwest 338 389 13,400 1,550 Climbing Boston Center
Tue 05:44:13 AM 42.6492 -74.4556 219° Southwest 365 420 15,300 1,678 Climbing Boston Center
Tue 05:45:11 AM 42.5664 -74.5431 218° Southwest 370 426 16,700 1,462 Climbing Boston Center
Tue 05:46:12 AM 42.4878 -74.6278 218° Southwest 376 433 18,200 1,150 Climbing Boston Center
Tue 05:47:11 AM 42.4025 -74.7147 217° Southwest 376 433 19,000 250 Climbing Boston Center
Tue 05:49:24 AM 42.2303 -74.9019 219° Southwest 382 440 19,000  Level New York Center
Tue 05:50:24 AM 42.1356 -74.9936 216° Southwest 382 440 19,000  Level New York Center
Tue 05:51:24 AM 42.0497 -75.0664 212° Southwest 382 440 19,000  Level New York Center
Tue 05:52:24 AM 41.9617 -75.1358 210° Southwest 377 434 19,000  Level New York Center
Tue 05:53:24 AM 41.8822 -75.2031 212° Southwest 377 434 19,000  Level New York Center
Tue 05:54:24 AM 41.7922 -75.2750 211° Southwest 377 434 19,000 -650 Level New York Center
Tue 05:55:24 AM 41.6975 -75.3519 211° Southwest 377 434 17,700 -1,750 Descending New York Center
Tue 05:56:24 AM 41.6117 -75.4211 211° Southwest 377 434 15,500 -2,050 Descending New York Center
Tue 05:57:24 AM 41.5319 -75.4847 211° Southwest 366 421 13,600 -1,600 Descending New York Center
Tue 05:58:24 AM 41.4633 -75.5381 210° Southwest 337 388 12,300 -800 Descending New York Center
Tue 05:59:24 AM 41.3878 -75.5992 211° Southwest 325 374 12,000 -150 Descending New York Center
Tue 06:00:24 AM 41.2997 -75.6672 210° Southwest 330 380 12,000  Level New York Center
Tue 06:01:24 AM 41.2094 -75.6828 187° South 330 380 12,000  Level New York Center
Tue 06:02:24 AM 41.1169 -75.6539 167° South 330 380 12,000  Level New York Center
Tue 06:03:24 AM 41.0369 -75.6264 165° South 335 386 12,000  Level New York Center
Tue 06:04:24 AM 40.9400 -75.5975 167° South 335 386 12,000 -250 Level New York Center
Tue 06:05:24 AM 40.8539 -75.5667 165° South 330 380 11,500 -450 Descending New York Center
Tue 06:06:24 AM 40.7797 -75.5422 166° South 316 364 11,100 -450 Descending New York Center
Tue 06:07:24 AM 40.6975 -75.5144 166° South 311 358 10,600 -500 Descending New York Center
Tue 06:08:24 AM 40.6175 -75.4872 166° South 306 352 10,100 -300 Descending New York Center
Tue 06:09:24 AM 40.5372 -75.4625 167° South 306 352 10,000 -50 Descending New York Center
Tue 06:10:24 AM 40.4550 -75.4325 164° South 301 346 10,000 -750 Level New York Center
Tue 06:11:24 AM 40.3758 -75.3753 151° Southeast 301 346 8,500 -1,500 Descending New York Center
Tue 06:12:24 AM 40.3050 -75.3214 150° Southeast 291 335 7,000 -1,250 Descending New York Center
Tue 06:13:24 AM 40.2383 -75.2708 150° Southeast 286 329 6,000 -500 Descending New York Center
Tue 06:14:24 AM 40.1672 -75.2200 151° Southeast 286 329 6,000  Level New York Center
Tue 06:15:15 AM 40.1000 -75.1667 149° Southeast 288 331 6,000  Level Philadelphia TRACON
Tue 06:16:15 AM 40.0500 -75.1167 143° Southeast 236 272 6,000 -700 Level Philadelphia TRACON
Tue 06:17:15 AM 40.0000 -75.0667 143° Southeast 211 243 4,600 -1,550 Descending Philadelphia TRACON
Tue 06:18:15 AM 39.9500 -75.0167 143° Southeast 207 238 2,900 -1,250 Descending Philadelphia TRACON
Tue 06:19:15 AM 39.9167 -75.0500 217° Southwest 180 207 2,100 -550 Descending Philadelphia TRACON
Tue 06:20:15 AM 39.9000 -75.1000 247° West 178 205 1,800 -524 Descending Philadelphia TRACON
Tue 06:21:21 AM 39.8833 -75.1667 252° West 135 155 1,000 -714 Descending Philadelphia TRACON
Tue 06:22:21 AM 39.8833 -75.2167 270° West 140 161 300 -700 Descending Philadelphia TRACON

Login

Don't have an account? Register now (free) for customized features, flight alerts, and more!